createdAt,value
2022-11-29T00:02:07.186Z,21.87
2022-11-29T00:04:38.758Z,21.80
2022-11-29T00:07:08.776Z,21.82
2022-11-29T00:09:39.206Z,21.78
2022-11-29T00:12:16.354Z,21.66
2022-11-29T00:14:46.956Z,21.55
2022-11-29T00:17:17.141Z,21.51
2022-11-29T00:19:48.685Z,21.53
2022-11-29T00:22:19.118Z,21.36
2022-11-29T00:24:49.528Z,21.43
2022-11-29T00:27:19.714Z,21.50
2022-11-29T00:29:50.342Z,21.61
2022-11-29T00:32:19.888Z,21.48
2022-11-29T00:34:50.310Z,21.36
2022-11-29T00:37:20.381Z,21.07
2022-11-29T00:39:51.002Z,21.31
2022-11-29T00:42:21.726Z,21.25
2022-11-29T00:44:52.282Z,21.35
2022-11-29T00:47:22.275Z,21.37
2022-11-29T00:49:52.829Z,21.46
2022-11-29T00:52:22.838Z,21.50
2022-11-29T00:54:53.490Z,21.45
2022-11-29T00:57:23.078Z,21.52
2022-11-29T00:59:52.926Z,21.53
2022-11-29T01:02:23.397Z,21.38
2022-11-29T01:04:53.246Z,21.42
2022-11-29T01:07:23.743Z,21.57
2022-11-29T01:09:53.999Z,21.54
2022-11-29T01:12:24.907Z,21.53
2022-11-29T01:14:55.087Z,21.50
2022-11-29T01:17:25.834Z,21.50
2022-11-29T01:19:55.939Z,21.42
2022-11-29T01:22:26.586Z,21.46
2022-11-29T01:24:56.396Z,21.46
2022-11-29T01:27:27.088Z,21.46
2022-11-29T01:29:57.535Z,21.44
2022-11-29T01:32:28.342Z,21.50
2022-11-29T01:34:58.486Z,21.22
2022-11-29T01:37:31.027Z,21.27
2022-11-29T01:40:01.055Z,21.18
2022-11-29T01:42:31.728Z,21.00
2022-11-29T01:45:06.036Z,21.08
2022-11-29T01:47:45.074Z,21.14
2022-11-29T01:50:15.839Z,21.10
2022-11-29T01:52:47.622Z,21.30
2022-11-29T01:55:17.887Z,21.00
2022-11-29T01:57:48.956Z,20.94
2022-11-29T02:00:20.946Z,21.10
2022-11-29T02:03:04.432Z,21.00
2022-11-29T02:05:34.990Z,20.96
2022-11-29T02:08:05.908Z,20.94
2022-11-29T02:11:09.005Z,21.14
2022-11-29T02:13:45.901Z,21.20
2022-11-29T02:16:28.583Z,20.93
2022-11-29T02:19:40.262Z,20.59
2022-11-29T02:22:39.340Z,20.86
2022-11-29T02:25:41.712Z,20.84
2022-11-29T02:28:43.753Z,20.85
2022-11-29T02:31:58.640Z,20.63
2022-11-29T02:35:05.565Z,20.77
2022-11-29T02:37:56.090Z,20.49
2022-11-29T02:40:47.372Z,20.42
2022-11-29T02:43:46.290Z,20.22
2022-11-29T02:46:40.301Z,20.53
2022-11-29T02:49:37.643Z,20.56
2022-11-29T02:52:14.697Z,20.52
2022-11-29T02:55:14.665Z,20.58
2022-11-29T02:57:57.811Z,20.55
2022-11-29T03:00:28.648Z,20.58
2022-11-29T03:03:20.074Z,20.56
2022-11-29T03:05:59.564Z,20.57
2022-11-29T03:09:02.534Z,20.51
2022-11-29T03:12:04.739Z,20.44
2022-11-29T03:14:53.324Z,20.36
2022-11-29T03:17:58.986Z,20.17
2022-11-29T03:20:54.518Z,20.20
2022-11-29T03:23:45.787Z,19.95
2022-11-29T03:26:37.274Z,20.12
2022-11-29T03:29:12.869Z,20.08
2022-11-29T03:31:52.148Z,20.21
2022-11-29T03:34:30.854Z,20.24
2022-11-29T03:37:19.751Z,20.21
2022-11-29T03:40:06.205Z,20.31
2022-11-29T03:42:52.599Z,20.26
2022-11-29T03:45:53.495Z,20.24
2022-11-29T03:48:51.255Z,20.42
2022-11-29T03:51:27.809Z,20.40
2022-11-29T03:54:09.822Z,20.50
2022-11-29T03:56:42.081Z,20.91
2022-11-29T03:59:31.243Z,20.92
2022-11-29T04:02:22.135Z,20.55
2022-11-29T04:05:36.625Z,20.50
2022-11-29T04:08:24.420Z,20.33
2022-11-29T04:11:35.628Z,20.27
2022-11-29T04:14:31.912Z,20.12
2022-11-29T04:17:36.880Z,20.41
2022-11-29T04:20:06.348Z,20.42
2022-11-29T04:23:04.710Z,20.47
2022-11-29T04:26:02.101Z,20.53
2022-11-29T04:28:46.910Z,20.72
2022-11-29T04:31:51.091Z,20.91
2022-11-29T04:34:43.189Z,21.09
2022-11-29T04:37:25.121Z,20.90
2022-11-29T04:40:08.189Z,21.00
2022-11-29T04:42:53.141Z,20.79
2022-11-29T04:45:44.153Z,20.77
2022-11-29T04:48:17.239Z,20.79
2022-11-29T04:50:56.785Z,20.74
2022-11-29T04:53:31.843Z,21.24
2022-11-29T04:56:27.768Z,21.25
2022-11-29T04:59:29.782Z,21.21
2022-11-29T05:02:25.679Z,21.18
2022-11-29T05:04:58.528Z,21.26
2022-11-29T05:07:46.395Z,21.21
2022-11-29T05:10:35.404Z,21.35
2022-11-29T05:13:13.684Z,21.40
2022-11-29T05:16:12.901Z,21.49
2022-11-29T05:19:19.636Z,21.24
2022-11-29T05:22:08.006Z,21.26
2022-11-29T05:24:54.062Z,21.58
2022-11-29T05:27:43.381Z,21.76
2022-11-29T05:30:25.021Z,21.71
2022-11-29T05:33:04.428Z,21.79
2022-11-29T05:35:59.818Z,21.80
2022-11-29T05:38:49.463Z,21.76
2022-11-29T05:41:24.850Z,21.70
2022-11-29T05:44:09.457Z,21.68
2022-11-29T05:47:02.359Z,21.64
2022-11-29T05:49:41.665Z,21.72
2022-11-29T05:52:31.364Z,21.90
2022-11-29T05:55:28.828Z,21.86
2022-11-29T05:58:30.256Z,21.68
2022-11-29T06:01:04.298Z,21.50
2022-11-29T06:04:14.730Z,21.43
2022-11-29T06:07:08.631Z,21.36
2022-11-29T06:10:05.109Z,21.37
2022-11-29T06:12:37.112Z,21.30
2022-11-29T06:15:35.817Z,21.43
2022-11-29T06:18:24.788Z,21.40
2022-11-29T06:21:17.593Z,21.45
2022-11-29T06:23:58.607Z,21.61
2022-11-29T06:26:56.614Z,21.59
2022-11-29T06:29:43.908Z,21.65
2022-11-29T06:32:23.405Z,21.71
2022-11-29T06:35:35.986Z,21.74
2022-11-29T06:38:18.032Z,21.58
2022-11-29T06:40:48.851Z,21.58
2022-11-29T06:43:19.297Z,21.42
2022-11-29T06:45:54.397Z,21.47
2022-11-29T06:48:28.804Z,21.45
2022-11-29T06:51:09.038Z,21.51
2022-11-29T06:54:00.947Z,21.58
2022-11-29T06:57:02.938Z,21.57
2022-11-29T07:00:12.875Z,21.67
2022-11-29T07:03:01.821Z,21.68
2022-11-29T07:05:34.324Z,21.60
2022-11-29T07:08:08.211Z,21.52
2022-11-29T07:10:41.067Z,21.42
2022-11-29T07:13:15.195Z,21.45
2022-11-29T07:16:16.965Z,21.56
2022-11-29T07:19:02.371Z,21.59
2022-11-29T07:22:07.457Z,21.74
2022-11-29T07:25:02.489Z,21.69
2022-11-29T07:27:54.556Z,21.48
2022-11-29T07:30:35.130Z,21.25
2022-11-29T07:33:11.233Z,21.27
2022-11-29T07:35:50.235Z,21.32
2022-11-29T07:38:30.526Z,21.31
2022-11-29T07:41:14.278Z,21.40
2022-11-29T07:44:25.436Z,21.44
2022-11-29T07:46:58.469Z,21.49
2022-11-29T07:49:28.578Z,21.45
2022-11-29T07:51:58.540Z,21.31
2022-11-29T07:54:29.146Z,21.30
2022-11-29T07:56:58.618Z,21.13
2022-11-29T07:59:28.942Z,21.18
2022-11-29T08:01:59.983Z,21.21
2022-11-29T08:04:31.077Z,21.08
2022-11-29T08:07:01.920Z,21.10
2022-11-29T08:09:32.335Z,21.02
2022-11-29T08:12:02.406Z,20.97
2022-11-29T08:14:36.005Z,20.98
2022-11-29T08:17:06.079Z,20.89
2022-11-29T08:19:36.604Z,20.89
2022-11-29T08:22:06.554Z,20.84
2022-11-29T08:24:36.408Z,20.75
2022-11-29T08:27:07.067Z,20.75
2022-11-29T08:29:36.706Z,20.67
2022-11-29T08:32:07.563Z,20.77
2022-11-29T08:34:38.428Z,20.78
2022-11-29T08:37:09.017Z,20.84
2022-11-29T08:39:39.121Z,20.89
2022-11-29T08:42:09.692Z,21.00
2022-11-29T08:44:39.331Z,21.03
2022-11-29T08:47:27.482Z,20.91
2022-11-29T08:50:04.192Z,21.19
2022-11-29T08:52:57.843Z,21.21
2022-11-29T08:55:32.059Z,21.69
2022-11-29T08:58:08.025Z,21.85
2022-11-29T09:00:39.617Z,22.09
2022-11-29T09:03:30.540Z,22.36
2022-11-29T09:06:09.008Z,22.75
2022-11-29T09:08:44.765Z,22.63
2022-11-29T09:11:21.072Z,22.70
2022-11-29T09:13:54.194Z,22.28
2022-11-29T09:16:27.906Z,22.67
2022-11-29T09:18:58.549Z,23.05
2022-11-29T09:21:33.321Z,22.97
2022-11-29T09:24:07.506Z,23.19
2022-11-29T09:26:41.772Z,23.42
2022-11-29T09:29:13.511Z,23.61
2022-11-29T09:31:51.652Z,23.50
2022-11-29T09:34:22.455Z,23.46
2022-11-29T09:36:52.670Z,23.49
2022-11-29T09:39:23.311Z,23.36
2022-11-29T09:42:12.228Z,23.40
2022-11-29T09:45:04.448Z,23.61
2022-11-29T09:48:10.374Z,23.93
2022-11-29T09:51:14.455Z,24.58
2022-11-29T09:53:59.147Z,25.18
2022-11-29T09:56:39.939Z,25.50
2022-11-29T09:59:37.829Z,26.32
2022-11-29T10:02:23.867Z,26.27
2022-11-29T10:05:10.654Z,26.18
2022-11-29T10:08:05.797Z,26.70
2022-11-29T10:10:44.414Z,26.87
2022-11-29T10:13:24.923Z,26.79
2022-11-29T10:15:59.755Z,27.05
2022-11-29T10:18:46.862Z,27.01
2022-11-29T10:21:21.873Z,27.43
2022-11-29T10:23:58.623Z,27.29
2022-11-29T10:26:34.851Z,27.49
2022-11-29T10:29:06.302Z,27.95
2022-11-29T10:31:44.473Z,27.89
2022-11-29T10:34:21.586Z,27.69
2022-11-29T10:36:51.172Z,28.13
2022-11-29T10:39:43.355Z,28.38
2022-11-29T10:42:38.042Z,28.52
2022-11-29T10:45:35.281Z,28.78
2022-11-29T10:48:27.451Z,28.59
2022-11-29T10:50:57.521Z,28.72
2022-11-29T10:53:28.539Z,28.83
2022-11-29T10:56:14.957Z,28.64
2022-11-29T10:59:06.257Z,28.62
2022-11-29T11:01:55.228Z,28.84
2022-11-29T11:04:36.853Z,29.31
2022-11-29T11:07:08.253Z,29.74
2022-11-29T11:09:50.693Z,30.46
2022-11-29T11:12:25.073Z,31.09
2022-11-29T11:15:29.401Z,31.50
2022-11-29T11:18:06.442Z,32.34
2022-11-29T11:20:41.556Z,33.11
2022-11-29T11:23:31.746Z,33.70
2022-11-29T11:26:07.898Z,33.85
2022-11-29T11:28:56.183Z,34.20
2022-11-29T11:31:39.382Z,34.68
2022-11-29T11:34:28.453Z,35.28
2022-11-29T11:37:26.550Z,35.08
2022-11-29T11:40:02.595Z,35.39
2022-11-29T11:42:42.130Z,35.88
2022-11-29T11:45:12.509Z,34.94
2022-11-29T11:47:51.777Z,34.42
2022-11-29T11:50:32.607Z,34.67
2022-11-29T11:53:25.079Z,33.71
2022-11-29T11:56:02.803Z,33.02
2022-11-29T11:58:46.075Z,34.05
2022-11-29T12:01:38.743Z,34.52
2022-11-29T12:04:26.530Z,34.16
2022-11-29T12:07:02.174Z,33.16
2022-11-29T12:09:51.517Z,33.50
2022-11-29T12:12:39.933Z,33.58
2022-11-29T12:15:16.403Z,33.37
2022-11-29T12:18:13.614Z,33.25
2022-11-29T12:20:52.982Z,33.84
2022-11-29T12:23:59.137Z,32.83
2022-11-29T12:26:57.003Z,34.88
2022-11-29T12:29:32.001Z,36.18
2022-11-29T12:32:02.137Z,36.63
2022-11-29T12:35:13.629Z,36.66
2022-11-29T12:38:14.825Z,36.38
2022-11-29T12:41:20.513Z,34.72
2022-11-29T12:44:18.106Z,34.87
2022-11-29T12:47:34.486Z,35.33
2022-11-29T12:50:06.202Z,36.94
2022-11-29T12:53:00.761Z,37.75
2022-11-29T12:55:37.133Z,37.86
2022-11-29T12:58:29.440Z,36.89
2022-11-29T13:01:14.535Z,36.33
2022-11-29T13:04:05.836Z,37.33
2022-11-29T13:07:00.401Z,37.14
2022-11-29T13:09:45.737Z,36.83
2022-11-29T13:12:24.738Z,36.43
2022-11-29T13:15:10.858Z,35.44
2022-11-29T13:17:47.035Z,34.91
2022-11-29T13:20:33.621Z,34.63
2022-11-29T13:23:39.103Z,34.25
2022-11-29T13:26:18.196Z,34.67
2022-11-29T13:28:48.346Z,34.29
2022-11-29T13:31:26.677Z,33.63
2022-11-29T13:34:08.682Z,32.97
2022-11-29T13:36:54.127Z,32.96
2022-11-29T13:39:49.703Z,34.56
2022-11-29T13:43:06.613Z,35.19
2022-11-29T13:45:39.479Z,34.74
2022-11-29T13:48:30.743Z,35.07
2022-11-29T13:51:21.110Z,35.20
2022-11-29T13:53:52.261Z,33.88
2022-11-29T13:56:43.774Z,33.16
2022-11-29T13:59:28.846Z,33.80
2022-11-29T14:02:00.297Z,33.98
2022-11-29T14:04:36.164Z,33.15
2022-11-29T14:07:12.719Z,33.02
2022-11-29T14:10:06.434Z,33.51
2022-11-29T14:12:51.978Z,33.09
2022-11-29T14:15:30.218Z,33.39
2022-11-29T14:18:06.439Z,33.39
2022-11-29T14:20:59.851Z,33.10
2022-11-29T14:23:36.194Z,32.31
2022-11-29T14:26:06.595Z,32.19
2022-11-29T14:28:40.243Z,32.89
2022-11-29T14:31:11.600Z,33.66
2022-11-29T14:34:15.391Z,35.39
2022-11-29T14:37:05.833Z,35.56
2022-11-29T14:39:49.444Z,35.51
2022-11-29T14:42:31.129Z,35.02
2022-11-29T14:45:05.835Z,34.30
2022-11-29T14:47:50.106Z,34.68
2022-11-29T14:50:39.121Z,35.20
2022-11-29T14:53:30.706Z,35.60
2022-11-29T14:56:31.784Z,35.59
2022-11-29T14:59:38.937Z,34.81
2022-11-29T15:02:49.788Z,33.48
2022-11-29T15:05:22.671Z,32.41
2022-11-29T15:08:10.733Z,32.73
2022-11-29T15:10:45.811Z,33.36
2022-11-29T15:13:39.762Z,33.04
2022-11-29T15:16:38.461Z,32.96
2022-11-29T15:19:24.277Z,32.75
2022-11-29T15:22:39.068Z,31.66
2022-11-29T15:25:15.343Z,31.69
2022-11-29T15:27:53.629Z,31.50
2022-11-29T15:30:42.407Z,31.61
2022-11-29T15:33:27.834Z,31.18
2022-11-29T15:36:10.497Z,31.70
2022-11-29T15:39:00.328Z,32.11
2022-11-29T15:41:36.512Z,32.37
2022-11-29T15:44:08.663Z,32.28
2022-11-29T15:46:39.387Z,32.79
2022-11-29T15:49:22.024Z,32.32
2022-11-29T15:52:07.184Z,32.19
2022-11-29T15:54:50.574Z,32.27
2022-11-29T15:57:29.112Z,32.54
2022-11-29T16:00:09.203Z,33.28
2022-11-29T16:03:07.601Z,33.42
2022-11-29T16:05:40.353Z,33.34
2022-11-29T16:08:22.600Z,33.16
2022-11-29T16:10:54.573Z,33.33
2022-11-29T16:13:32.275Z,32.95
2022-11-29T16:16:24.098Z,32.79
2022-11-29T16:18:54.954Z,33.80
2022-11-29T16:21:32.885Z,34.26
2022-11-29T16:24:22.863Z,34.32
2022-11-29T16:26:53.353Z,34.09
2022-11-29T16:29:35.398Z,33.63
2022-11-29T16:32:17.605Z,34.30
2022-11-29T16:34:48.483Z,34.49
2022-11-29T16:37:25.142Z,34.03
2022-11-29T16:40:02.082Z,33.40
2022-11-29T16:42:34.654Z,33.78
2022-11-29T16:45:35.111Z,33.05
2022-11-29T16:48:28.901Z,32.07
2022-11-29T16:51:14.955Z,32.05
2022-11-29T16:53:54.705Z,32.13
2022-11-29T16:56:27.403Z,32.56
2022-11-29T16:59:25.404Z,33.70
2022-11-29T17:01:54.970Z,33.51
2022-11-29T17:04:25.613Z,33.17
2022-11-29T17:06:57.804Z,33.12
2022-11-29T17:09:31.541Z,33.45
2022-11-29T17:12:03.681Z,32.91
2022-11-29T17:14:34.540Z,32.83
2022-11-29T17:17:05.449Z,33.50
2022-11-29T17:19:35.553Z,33.41
2022-11-29T17:22:05.706Z,32.51
2022-11-29T17:24:36.391Z,32.07
2022-11-29T17:27:07.064Z,32.15
2022-11-29T17:29:37.610Z,32.74
2022-11-29T17:32:10.634Z,32.71
2022-11-29T17:34:41.431Z,33.21
2022-11-29T17:37:11.632Z,32.35
2022-11-29T17:39:45.976Z,31.97
2022-11-29T17:42:16.429Z,31.57
2022-11-29T17:44:46.957Z,31.83
2022-11-29T17:47:17.281Z,31.96
2022-11-29T17:49:47.978Z,32.07
2022-11-29T17:52:18.354Z,32.11
2022-11-29T17:54:48.947Z,31.72
2022-11-29T17:57:19.484Z,31.46
2022-11-29T17:59:49.989Z,31.58
2022-11-29T18:02:20.074Z,31.57
2022-11-29T18:04:50.681Z,31.25
2022-11-29T18:07:20.755Z,31.79
2022-11-29T18:09:51.987Z,31.96
2022-11-29T18:12:23.600Z,32.11
2022-11-29T18:14:54.130Z,31.89
2022-11-29T18:17:24.629Z,31.98
2022-11-29T18:19:55.161Z,31.30
2022-11-29T18:22:25.289Z,31.18
2022-11-29T18:25:15.807Z,31.12
2022-11-29T18:27:45.256Z,31.79
2022-11-29T18:30:15.206Z,31.85
2022-11-29T18:32:46.993Z,31.38
2022-11-29T18:35:19.760Z,30.82
2022-11-29T18:38:14.061Z,30.89
2022-11-29T18:40:40.572Z,31.11
2022-11-29T18:43:10.586Z,30.99
2022-11-29T18:45:41.235Z,31.74
2022-11-29T18:48:12.266Z,31.74
2022-11-29T18:50:42.923Z,31.61
2022-11-29T18:53:14.072Z,32.09
2022-11-29T18:55:44.506Z,32.54
2022-11-29T18:58:14.394Z,32.92
2022-11-29T19:00:45.661Z,32.17
2022-11-29T19:03:15.715Z,31.77
2022-11-29T19:05:54.021Z,31.58
2022-11-29T19:08:24.183Z,31.50
2022-11-29T19:10:54.653Z,31.03
2022-11-29T19:13:25.545Z,30.79
2022-11-29T19:15:56.847Z,30.50
2022-11-29T19:18:26.931Z,30.40
2022-11-29T19:21:12.308Z,30.20
2022-11-29T19:23:43.774Z,30.38
2022-11-29T19:26:16.642Z,30.81
2022-11-29T19:28:47.618Z,30.36
2022-11-29T19:31:21.054Z,30.01
2022-11-29T19:33:52.839Z,29.62
2022-11-29T19:36:31.559Z,29.85
2022-11-29T19:39:03.528Z,29.98
2022-11-29T19:41:35.806Z,29.95
2022-11-29T19:44:10.636Z,29.81
2022-11-29T19:46:47.054Z,29.60
2022-11-29T19:49:17.262Z,29.61
2022-11-29T19:51:47.764Z,29.81
2022-11-29T19:54:17.885Z,29.90
2022-11-29T19:56:48.422Z,30.36
2022-11-29T19:59:19.739Z,30.12
2022-11-29T20:01:53.075Z,30.47
2022-11-29T20:04:23.206Z,30.52
2022-11-29T20:06:55.601Z,30.27
2022-11-29T20:09:27.890Z,30.42
2022-11-29T20:11:58.362Z,29.88
2022-11-29T20:14:28.835Z,29.94
2022-11-29T20:16:59.379Z,29.89
2022-11-29T20:19:29.470Z,29.80
2022-11-29T20:21:59.362Z,30.27
2022-11-29T20:24:32.361Z,30.22
2022-11-29T20:27:09.314Z,29.78
2022-11-29T20:29:39.898Z,29.47
2022-11-29T20:32:09.982Z,29.22
2022-11-29T20:34:40.640Z,29.30
2022-11-29T20:37:22.261Z,29.30
2022-11-29T20:40:25.025Z,28.81
2022-11-29T20:43:13.946Z,28.95
2022-11-29T20:45:44.642Z,28.81
2022-11-29T20:48:32.751Z,28.63
2022-11-29T20:51:04.312Z,28.74
2022-11-29T20:53:41.901Z,28.46
2022-11-29T20:56:13.618Z,28.35
2022-11-29T20:58:46.825Z,28.14
2022-11-29T21:01:18.457Z,27.79
2022-11-29T21:03:48.720Z,27.85
2022-11-29T21:06:19.395Z,27.73
2022-11-29T21:08:50.024Z,27.49
2022-11-29T21:11:20.795Z,27.28
2022-11-29T21:13:51.134Z,27.09
2022-11-29T21:16:29.735Z,26.88
2022-11-29T21:19:02.981Z,26.95
2022-11-29T21:21:45.890Z,26.77
2022-11-29T21:24:23.614Z,26.93
2022-11-29T21:26:54.581Z,26.74
2022-11-29T21:29:25.626Z,26.81
2022-11-29T21:31:57.040Z,26.75
2022-11-29T21:34:27.166Z,26.76
2022-11-29T21:37:00.563Z,26.66
2022-11-29T21:39:36.736Z,26.64
2022-11-29T21:42:06.977Z,26.56
2022-11-29T21:44:37.549Z,26.58
2022-11-29T21:47:07.690Z,26.43
2022-11-29T21:49:38.346Z,26.47
2022-11-29T21:52:11.099Z,26.36
2022-11-29T21:54:41.809Z,26.11
2022-11-29T21:57:11.889Z,26.27
2022-11-29T21:59:42.337Z,26.25
2022-11-29T22:02:12.514Z,26.18
2022-11-29T22:04:43.185Z,25.95
2022-11-29T22:07:13.314Z,25.80
2022-11-29T22:09:43.831Z,25.80
2022-11-29T22:12:33.559Z,25.91
2022-11-29T22:15:07.306Z,25.79
2022-11-29T22:17:37.294Z,25.68
2022-11-29T22:20:08.840Z,25.54
2022-11-29T22:22:38.846Z,25.47
2022-11-29T22:25:10.354Z,25.46
2022-11-29T22:27:40.417Z,25.37
2022-11-29T22:30:11.147Z,25.33
2022-11-29T22:32:43.977Z,25.29
2022-11-29T22:35:14.385Z,25.31
2022-11-29T22:37:44.366Z,25.04
2022-11-29T22:40:14.952Z,25.06
2022-11-29T22:42:44.989Z,24.99
2022-11-29T22:45:15.488Z,24.91
2022-11-29T22:47:45.468Z,24.62
2022-11-29T22:50:16.703Z,24.68
2022-11-29T22:52:47.106Z,24.73
2022-11-29T22:55:17.152Z,24.77
2022-11-29T22:57:47.517Z,24.87
2022-11-29T23:00:17.321Z,24.72
2022-11-29T23:02:47.791Z,24.67
2022-11-29T23:05:17.258Z,24.65
2022-11-29T23:07:48.346Z,24.64
2022-11-29T23:10:19.209Z,24.68
2022-11-29T23:12:50.523Z,24.55
2022-11-29T23:15:20.915Z,24.68
2022-11-29T23:17:50.935Z,24.65
2022-11-29T23:20:21.286Z,24.70
2022-11-29T23:22:52.399Z,24.64
2022-11-29T23:25:22.869Z,24.58
2022-11-29T23:27:55.126Z,24.36
2022-11-29T23:30:25.588Z,24.35
2022-11-29T23:32:57.996Z,24.20
2022-11-29T23:35:28.626Z,24.06
2022-11-29T23:37:58.688Z,23.96
2022-11-29T23:40:29.949Z,24.08
2022-11-29T23:43:03.373Z,24.02
2022-11-29T23:45:33.799Z,23.92
2022-11-29T23:48:03.983Z,24.00
2022-11-29T23:50:34.354Z,23.91
2022-11-29T23:53:03.917Z,23.89
2022-11-29T23:55:33.774Z,23.85
2022-11-29T23:58:04.475Z,23.67
